Ana Sayfa
METAR-TAF:

METAR-TAF

Havaalanları :

Accomack County Airport

Melfa, Virginia, Amerika Birleşik Devletleri

Enlem: 37-39N, Boylam: 075-46W, yükseklik: 15 m

Güncel hava durumu gözlemi

Rapor saat 03:10 UTC de 26 dakika önce yapıldı.
Rüzgar güneydan 5 kt
Sıcaklık 27°C
Nem 94%
Basınç 1014 hPa
Görüş mesafesi: 16.1 km
Açık gökyüzü

METAR: KMFV 200310Z AUTO 19005KT 10SM CLR 27/26 A2995 RMK AO2 T02700256

Saat: 23:36 (03:36 UTC)


TAF: eksik

4.000'den fazla havaalanı için hava durumu gözlemleri ve tahminleri (METAR ve TAF raporları).

Kullanılabilir istasyonlar harita üzerinde sarı ve kırmızı noktalarla gösterilir.

İstasyonun adını görmek için fareyi noktanın üzerinde gezdirin.

Sonrasında hava gözlem ve tahminlerini görmek için tıklayın.

Haritayı değiştirmek için: yaklaştırmak için siyah artı işaretli yeşil düğmeye ve uzaklaştırmak için de eksi işaretli düğmeye hızla tıklayın; bitişik haritalar için yeşil okları kullanın.


METAR-TAF: